• Join FlightAware (Why Join?)
  • Login
  • US Flag 
Gobble Gobble! 
09:32AM EST


 

Airport Tracker/Info


-or-


 

Live Flight TrackerFlight Track Log ✈ AMF1026 ✈ 26-Apr-2013 ✈ KALB - KCVG

Flight Track Log - Related Links

Times and Time Zones

All times are in EDT time to prevent confusion due to time zone crossing. See the AMF1026 flight status page for this flight to view local times or setup timezone preferences in your user account.

Time Position Orientation Groundspeed Altitude Reporting Facility
EDT Latitude Longitude Course Direction KTS MPH feet Rate Location/Type
08:33PM 42.7611 -73.8061 359° North 155 178 1,100  Level Boston Center
08:33PM 42.7756 -73.8064 359° North 150 173 1,600 1,920 Climbing Boston Center
08:34PM 42.7897 -73.8575 291° West 187 215 3,700 1,980 Climbing Boston Center
08:35PM 42.7533 -73.9189 231° Southwest 192 221 5,700 1,980 Climbing Boston Center
08:37PM 42.7475 -74.0572 267° West 199 229 9,800 1,860 Climbing Boston Center
08:38PM 42.7506 -74.1167 274° West 181 208 11,400 1,680 Climbing Boston Center
08:39PM 42.7539 -74.1847 274° West 176 203 13,200 1,500 Climbing Boston Center
08:40PM 42.7486 -74.2467 263° West 176 203 14,500 1,260 Climbing Boston Center
08:41PM 42.7433 -74.3144 264° West 176 203 15,800 720 Climbing Boston Center
08:42PM 42.7236 -74.3761 246° West 188 216 16,000 60 Climbing Boston Center
08:43PM 42.6806 -74.4539 233° Southwest 217 250 16,000  Level Boston Center
08:44PM 42.6417 -74.5258 234° Southwest 257 296 16,000  Level Boston Center
08:45PM 42.6108 -74.6208 246° West 262 302 16,000  Level Boston Center
08:46PM 42.5903 -74.7075 252° West 262 302 16,000  Level Boston Center
08:47PM 42.5758 -74.8028 258° West 262 302 16,000 -60 Level Boston Center
08:50PM 42.5258 -75.0217 253° West 267 307 15,900 -60 Descending New York Center
08:51PM 42.4914 -75.1067 241° Southwest 272 313 15,900  Level New York Center
08:52PM 42.4692 -75.2036 253° West 272 313 15,900  Level New York Center
08:53PM 42.4492 -75.2947 253° West 266 306 15,900  Level New York Center
08:54PM 42.4144 -75.3822 242° Southwest 266 306 15,900  Level New York Center
08:55PM 42.3778 -75.4722 241° Southwest 272 313 15,900  Level New York Center
08:56PM 42.3411 -75.5567 240° Southwest 272 313 15,900  Level New York Center
08:57PM 42.3125 -75.6469 247° West 272 313 15,900  Level New York Center
08:58PM 42.2878 -75.7406 250° West 272 313 16,000 60 Climbing New York Center
08:59PM 42.2567 -75.8333 246° West 272 313 16,100  Climbing New York Center
09:00PM 42.2219 -75.9203 242° Southwest 267 307 16,100  Level New York Center
09:01PM 42.1950 -76.0106 248° West 272 313 16,100  Level New York Center
09:02PM 42.1681 -76.1036 249° West 272 313 16,100  Level New York Center
09:03PM 42.1389 -76.1936 246° West 267 307 16,100  Level New York Center
09:04PM 42.1139 -76.2864 250° West 267 307 16,100  Level New York Center
09:05PM 42.0867 -76.3764 248° West 267 307 16,100  Level New York Center
09:06PM 42.0553 -76.4661 245° Southwest 267 307 16,100  Level New York Center
09:07PM 42.0258 -76.5583 247° West 267 307 16,100  Level New York Center
09:09PM 41.9522 -76.7467 242° Southwest 266 306 16,100  Level Cleveland Center
09:10PM 41.9175 -76.8325 241° Southwest 266 306 16,100  Level Cleveland Center
09:11PM 41.8831 -76.9236 243° Southwest 272 313 16,100  Level Cleveland Center
09:12PM 41.8483 -77.0122 242° Southwest 272 313 16,100  Level Cleveland Center
09:13PM 41.8175 -77.1031 246° West 272 313 16,100  Level Cleveland Center
09:14PM 41.7850 -77.1967 245° Southwest 272 313 16,100  Level Cleveland Center
09:15PM 41.7586 -77.2900 249° West 272 313 16,100  Level Cleveland Center
09:16PM 41.7300 -77.3833 248° West 272 313 16,100  Level Cleveland Center
09:17PM 41.6992 -77.4767 246° West 277 319 16,100 -60 Level Cleveland Center
09:18PM 41.6600 -77.5731 241° Southwest 282 325 16,000 -60 Descending Cleveland Center
09:19PM 41.6247 -77.6664 243° Southwest 287 330 16,000  Level Cleveland Center
09:20PM 41.5875 -77.7569 241° Southwest 287 330 16,000  Level Cleveland Center
09:21PM 41.5522 -77.8500 243° Southwest 287 330 16,000  Level Cleveland Center
09:22PM 41.5169 -77.9431 243° Southwest 287 330 16,000  Level Cleveland Center
09:23PM 41.4817 -78.0414 244° Southwest 287 330 16,000  Level Cleveland Center
09:24PM 41.4525 -78.1394 248° West 287 330 16,000  Level Cleveland Center
09:25PM 41.4292 -78.2292 251° West 287 330 16,000  Level Cleveland Center
09:26PM 41.4042 -78.3269 251° West 287 330 16,000  Level Cleveland Center
09:27PM 41.3769 -78.4358 252° West 287 330 16,000  Level Cleveland Center
09:28PM 41.3456 -78.5336 247° West 292 336 16,000  Level Cleveland Center
09:29PM 41.3139 -78.6342 247° West 292 336 16,000  Level Cleveland Center
09:30PM 41.2842 -78.7317 248° West 292 336 16,000 -60 Level Cleveland Center
09:31PM 41.2525 -78.8294 247° West 297 342 15,900  Descending Cleveland Center
09:32PM 41.2183 -78.9242 244° Southwest 297 342 16,000  Climbing Cleveland Center
09:33PM 41.1883 -79.0103 245° Southwest 297 342 15,900  Descending Cleveland Center
09:34PM 41.1522 -79.1133 245° Southwest 292 336 16,000  Climbing Cleveland Center
09:35PM 41.1261 -79.1883 245° Southwest 292 336 16,000  Level Cleveland Center
09:36PM 41.0919 -79.2992 248° West 292 336 16,000  Level Cleveland Center
09:37PM 41.0594 -79.3908 245° Southwest 292 336 16,000  Level Cleveland Center
09:38PM 41.0272 -79.4878 246° West 292 336 16,000  Level Cleveland Center
09:39PM 41.0031 -79.5844 252° West 292 336 16,000  Level Cleveland Center
09:40PM 40.9747 -79.6811 249° West 292 336 16,000  Level Cleveland Center
09:41PM 40.9461 -79.7806 249° West 292 336 16,000  Level Cleveland Center
09:42PM 40.9217 -79.8742 251° West 292 336 16,000  Level Cleveland Center
09:43PM 40.8953 -79.9733 251° West 292 336 16,000  Level Cleveland Center
09:44PM 40.8686 -80.0669 249° West 292 336 16,000  Level Cleveland Center
09:45PM 40.8378 -80.1714 249° West 292 336 16,000  Level Cleveland Center
09:46PM 40.8006 -80.2594 241° Southwest 287 330 16,000  Level Cleveland Center
09:47PM 40.7569 -80.3419 235° Southwest 281 323 16,000  Level Cleveland Center
09:48PM 40.7133 -80.4189 233° Southwest 286 329 16,000  Level Cleveland Center
09:49PM 40.6592 -80.5011 229° Southwest 281 323 16,000  Level Cleveland Center
09:50PM 40.6156 -80.5831 235° Southwest 275 316 16,000  Level Cleveland Center
09:51PM 40.5800 -80.6486 234° Southwest 269 310 16,000  Level Cleveland Center
09:52PM 40.5381 -80.7333 237° Southwest 269 310 16,000  Level Cleveland Center
09:53PM 40.4942 -80.8125 234° Southwest 269 310 16,000  Level Cleveland Center
09:54PM 40.4503 -80.8914 234° Southwest 274 315 16,000  Level Cleveland Center
09:55PM 40.4106 -80.9731 237° Southwest 274 315 16,000  Level Cleveland Center
09:56PM 40.3725 -81.0572 239° Southwest 274 315 16,000 -60 Level Cleveland Center
09:57PM 40.3347 -81.1442 240° Southwest 274 315 15,900  Descending Cleveland Center
09:58PM 40.2586 -81.2964 237° Southwest 268 308 16,000  Climbing Indianapolis Center
10:00PM 40.2097 -81.3733 230° Southwest 272 313 16,000  Level Indianapolis Center
10:01PM 40.1600 -81.4497 230° Southwest 273 314 16,000  Level Indianapolis Center
10:02PM 40.1172 -81.5297 235° Southwest 268 308 16,000  Level Indianapolis Center
10:03PM 40.0806 -81.6133 240° Southwest 264 304 16,000 -60 Level Indianapolis Center
10:04PM 40.0450 -81.6958 241° Southwest 260 299 15,900  Descending Indianapolis Center
10:05PM 40.0147 -81.7853 246° West 264 304 16,000  Climbing Indianapolis Center
10:06PM 39.9942 -81.8919 256° West 261 300 15,900  Descending Indianapolis Center
10:07PM 39.9733 -81.9839 254° West 261 300 16,000  Climbing Indianapolis Center
10:08PM 39.9469 -82.0739 249° West 264 304 15,900 -60 Descending Indianapolis Center
10:09PM 39.9214 -82.1639 250° West 264 304 15,900  Level Indianapolis Center
10:10PM 39.8944 -82.2531 249° West 262 302 15,900  Level Indianapolis Center
10:11PM 39.8653 -82.3411 247° West 262 302 15,900  Level Indianapolis Center
10:12PM 39.8356 -82.4289 246° West 264 304 15,900  Level Indianapolis Center
10:13PM 39.8053 -82.5156 246° West 262 302 15,900  Level Indianapolis Center
10:14PM 39.7750 -82.6019 246° West 261 300 16,000  Climbing Indianapolis Center
10:15PM 39.7419 -82.6861 243° Southwest 260 299 16,000  Level Indianapolis Center
10:16PM 39.7069 -82.7703 242° Southwest 262 302 16,000  Level Indianapolis Center
10:17PM 39.6733 -82.8556 243° Southwest 264 304 16,000 -60 Level Indianapolis Center
10:18PM 39.6406 -82.9408 243° Southwest 263 303 15,900 -660 Descending Indianapolis Center
10:19PM 39.6056 -83.0267 242° Southwest 263 303 14,700 -960 Descending Indianapolis Center
10:20PM 39.5675 -83.1189 242° Southwest 280 322 14,000 -360 Descending Indianapolis Center
10:21PM 39.5347 -83.2078 244° Southwest 274 315 14,000  Level Indianapolis Center
10:22PM 39.5075 -83.2958 248° West 263 303 14,000  Level Indianapolis Center
10:23PM 39.4850 -83.3858 252° West 260 299 14,000  Level Indianapolis Center
10:24PM 39.4600 -83.4719 249° West 253 291 14,000  Level Indianapolis Center
10:25PM 39.4303 -83.5578 246° West 258 297 14,000 -360 Level Indianapolis Center
10:26PM 39.3997 -83.6433 245° Southwest 259 298 13,300 -840 Descending Indianapolis Center
10:27PM 39.3719 -83.7319 248° West 263 303 12,400 -1,020 Descending Indianapolis Center
10:28PM 39.3458 -83.8214 249° West 264 304 11,300 -720 Descending Indianapolis Center
10:29PM 39.3225 -83.9086 251° West 256 295 11,000 -540 Descending Indianapolis Center
10:30PM 39.2925 -83.9900 245° Southwest 250 288 10,300 -900 Descending Indianapolis Center
10:31PM 39.2661 -84.0747 248° West 251 289 9,200 -660 Descending Indianapolis Center
10:32PM 39.2389 -84.1597 248° West 253 291 9,000 -900 Descending Indianapolis Center
10:33PM 39.2125 -84.2425 248° West 249 287 7,400 -1,500 Descending Indianapolis Center
10:34PM 39.1792 -84.3206 241° Southwest 247 284 6,000 -1,200 Descending Indianapolis Center
10:35PM 39.1500 -84.3969 244° Southwest 241 277 5,000 -1,080 Descending Indianapolis Center
10:36PM 39.1481 -84.4869 268° West 243 280 3,900 -660 Descending Indianapolis Center
10:37PM 39.1461 -84.5719 268° West 244 281 3,700 -720 Descending Indianapolis Center
10:38PM 39.1500 -84.6333 275° West 148 170 2,500 -960 Descending Cincinnati TRACON
10:39PM 39.1167 -84.6667 218° Southwest 123 142 1,800 -660 Descending Cincinnati TRACON
10:40PM 39.0833 -84.6667 180° South 117 135 1,300 -600 Descending Cincinnati TRACON
10:42PM 39.0488 -84.6678 247° West  Level Estimated
10:49PM 39.0488 -84.6678 247° West  Level Estimated